createdAt,value
2017-05-07T00:00:44.353Z,1001.55
2017-05-07T00:01:45.777Z,1001.57
2017-05-07T00:02:47.197Z,1001.54
2017-05-07T00:03:48.629Z,1001.55
2017-05-07T00:04:50.058Z,1001.51
2017-05-07T00:05:51.484Z,1001.54
2017-05-07T00:06:52.908Z,1001.53
2017-05-07T00:07:54.335Z,1001.55
2017-05-07T00:08:55.768Z,1001.51
2017-05-07T00:09:57.189Z,1001.54
2017-05-07T00:10:58.615Z,1001.53
2017-05-07T00:12:00.052Z,1001.53
2017-05-07T00:13:01.487Z,1001.54
2017-05-07T00:14:02.907Z,1001.51
2017-05-07T00:15:04.433Z,1001.53
2017-05-07T00:16:05.879Z,1001.52
2017-05-07T00:17:07.308Z,1001.56
2017-05-07T00:18:08.732Z,1001.54
2017-05-07T00:19:10.163Z,1001.53
2017-05-07T00:20:11.591Z,1001.54
2017-05-07T00:21:13.038Z,1001.55
2017-05-07T00:22:14.470Z,1001.50
2017-05-07T00:23:15.942Z,1001.48
2017-05-07T00:24:17.375Z,1001.51
2017-05-07T00:25:18.800Z,1001.53
2017-05-07T00:26:20.291Z,1001.51
2017-05-07T00:27:21.735Z,1001.55
2017-05-07T00:28:23.153Z,1001.59
2017-05-07T00:29:24.581Z,1001.55
2017-05-07T00:30:26.011Z,1001.57
2017-05-07T00:31:27.442Z,1001.58
2017-05-07T00:32:28.871Z,1001.58
2017-05-07T00:33:30.352Z,1001.56
2017-05-07T00:34:31.783Z,1001.56
2017-05-07T00:35:33.209Z,1001.60
2017-05-07T00:36:34.627Z,1001.64
2017-05-07T00:37:36.056Z,1001.58
2017-05-07T00:38:37.480Z,1001.55
2017-05-07T00:39:38.907Z,1001.56
2017-05-07T00:40:40.333Z,1001.58
2017-05-07T00:41:41.762Z,1001.59
2017-05-07T00:42:43.198Z,1001.57
2017-05-07T00:43:44.622Z,1001.59
2017-05-07T00:44:46.051Z,1001.62
2017-05-07T00:45:47.477Z,1001.57
2017-05-07T00:46:48.912Z,1001.63
2017-05-07T00:47:50.333Z,1001.62
2017-05-07T00:48:51.765Z,1001.61
2017-05-07T00:49:53.195Z,1001.57
2017-05-07T00:50:54.622Z,1001.57
2017-05-07T00:51:56.041Z,1001.58
2017-05-07T00:52:57.461Z,1001.63
2017-05-07T00:53:58.889Z,1001.63
2017-05-07T00:55:00.310Z,1001.65
2017-05-07T00:56:01.738Z,1001.66
2017-05-07T00:57:03.162Z,1001.64
2017-05-07T00:58:04.587Z,1001.64
2017-05-07T00:59:06.014Z,1001.66
2017-05-07T01:00:07.439Z,1001.70
2017-05-07T01:01:08.861Z,1001.70
2017-05-07T01:02:10.302Z,1001.66
2017-05-07T01:03:11.732Z,1001.62
2017-05-07T01:04:13.152Z,1001.67
2017-05-07T01:05:14.583Z,1001.66
2017-05-07T01:06:16.007Z,1001.67
2017-05-07T01:07:17.432Z,1001.68
2017-05-07T01:08:18.853Z,1001.68
2017-05-07T01:09:20.274Z,1001.66
2017-05-07T01:10:21.706Z,1001.70
2017-05-07T01:11:23.138Z,1001.76
2017-05-07T01:12:24.560Z,1001.66
2017-05-07T01:13:25.984Z,1001.68
2017-05-07T01:14:27.413Z,1001.71
2017-05-07T01:15:28.840Z,1001.70
2017-05-07T01:16:30.258Z,1001.68
2017-05-07T01:17:31.696Z,1001.70
2017-05-07T01:18:33.117Z,1001.69
2017-05-07T01:19:34.541Z,1001.70
2017-05-07T01:20:35.963Z,1001.72
2017-05-07T01:21:37.386Z,1001.72
2017-05-07T01:22:38.814Z,1001.79
2017-05-07T01:23:40.245Z,1001.73
2017-05-07T01:24:41.668Z,1001.74
2017-05-07T01:25:43.090Z,1001.76
2017-05-07T01:26:44.529Z,1001.78
2017-05-07T01:27:46.002Z,1001.77
2017-05-07T01:28:47.421Z,1001.76
2017-05-07T01:29:48.855Z,1001.74
2017-05-07T01:30:50.271Z,1001.78
2017-05-07T01:31:51.729Z,1001.76
2017-05-07T01:32:53.157Z,1001.78
2017-05-07T01:33:54.589Z,1001.73
2017-05-07T01:34:56.017Z,1001.79
2017-05-07T01:35:57.478Z,1001.80
2017-05-07T01:36:58.897Z,1001.83
2017-05-07T01:38:00.340Z,1001.81
2017-05-07T01:39:01.760Z,1001.81
2017-05-07T01:40:03.179Z,1001.84
2017-05-07T01:41:04.610Z,1001.83
2017-05-07T01:42:06.030Z,1001.84
2017-05-07T01:43:07.459Z,1001.87
2017-05-07T01:44:08.888Z,1001.87
2017-05-07T01:45:10.308Z,1001.86
2017-05-07T01:46:11.735Z,1001.89
2017-05-07T01:47:13.166Z,1001.91
2017-05-07T01:48:14.590Z,1001.90
2017-05-07T01:49:16.011Z,1001.93
2017-05-07T01:50:17.435Z,1001.88
2017-05-07T01:51:18.857Z,1001.89
2017-05-07T01:52:20.281Z,1001.88
2017-05-07T01:53:21.702Z,1001.91
2017-05-07T01:54:23.128Z,1001.88
2017-05-07T01:55:24.550Z,1001.90
2017-05-07T01:56:25.973Z,1001.89
2017-05-07T01:57:27.396Z,1001.89
2017-05-07T01:58:28.823Z,1001.94
2017-05-07T01:59:30.243Z,1001.94
2017-05-07T02:00:31.666Z,1001.89
2017-05-07T02:01:33.094Z,1001.95
2017-05-07T02:02:34.515Z,1001.95
2017-05-07T02:03:35.936Z,1001.91
2017-05-07T02:04:37.354Z,1001.92
2017-05-07T02:05:38.778Z,1001.91
2017-05-07T02:06:40.208Z,1001.89
2017-05-07T02:07:41.636Z,1001.87
2017-05-07T02:08:43.059Z,1001.89
2017-05-07T02:09:44.476Z,1001.88
2017-05-07T02:10:45.894Z,1001.85
2017-05-07T02:11:47.316Z,1001.84
2017-05-07T02:12:48.748Z,1001.83
2017-05-07T02:13:50.175Z,1001.81
2017-05-07T02:14:51.599Z,1001.87
2017-05-07T02:15:53.025Z,1001.84
2017-05-07T02:16:54.447Z,1001.87
2017-05-07T02:17:55.867Z,1001.82
2017-05-07T02:18:57.299Z,1001.85
2017-05-07T02:19:58.713Z,1001.90
2017-05-07T02:21:00.141Z,1001.88
2017-05-07T02:22:01.558Z,1001.88
2017-05-07T02:23:02.985Z,1001.87
2017-05-07T02:24:04.409Z,1001.88
2017-05-07T02:25:05.850Z,1001.85
2017-05-07T02:26:07.280Z,1001.91
2017-05-07T02:27:08.699Z,1001.84
2017-05-07T02:28:10.131Z,1001.89
2017-05-07T02:29:11.631Z,1001.88
2017-05-07T02:30:13.061Z,1001.86
2017-05-07T02:31:14.478Z,1001.84
2017-05-07T02:32:15.904Z,1001.86
2017-05-07T02:33:17.326Z,1001.85
2017-05-07T02:34:18.761Z,1001.83
2017-05-07T02:35:20.200Z,1001.82
2017-05-07T02:36:21.696Z,1001.83
2017-05-07T02:37:23.122Z,1001.83
2017-05-07T02:38:24.538Z,1001.80
2017-05-07T02:39:26.039Z,1001.83
2017-05-07T02:40:27.477Z,1001.85
2017-05-07T02:41:28.906Z,1001.89
2017-05-07T02:42:30.330Z,1001.90
2017-05-07T02:43:31.848Z,1001.92
2017-05-07T02:44:33.277Z,1001.93
2017-05-07T02:45:34.703Z,1001.93
2017-05-07T02:46:36.126Z,1001.94
2017-05-07T02:47:37.552Z,1001.92
2017-05-07T02:48:38.978Z,1001.94
2017-05-07T02:49:40.402Z,1001.93
2017-05-07T02:50:41.823Z,1001.90
2017-05-07T02:51:43.243Z,1001.94
2017-05-07T02:52:44.670Z,1001.89
2017-05-07T02:53:46.091Z,1001.91
2017-05-07T02:54:47.513Z,1001.88
2017-05-07T02:55:48.948Z,1001.86
2017-05-07T02:56:50.368Z,1001.89
2017-05-07T02:57:51.787Z,1001.88
2017-05-07T02:58:53.211Z,1001.90
2017-05-07T02:59:54.631Z,1001.92
2017-05-07T03:00:56.051Z,1001.90
2017-05-07T03:01:57.478Z,1001.96
2017-05-07T03:02:58.895Z,1001.96
2017-05-07T03:04:00.329Z,1001.94
2017-05-07T03:05:01.752Z,1001.92
2017-05-07T03:06:03.177Z,1001.96
2017-05-07T03:07:04.596Z,1001.94
2017-05-07T03:08:06.018Z,1001.95
2017-05-07T03:09:07.451Z,1001.96
2017-05-07T03:10:08.877Z,1001.93
2017-05-07T03:11:10.310Z,1001.95
2017-05-07T03:12:11.738Z,1002.01
2017-05-07T03:13:13.157Z,1001.97
2017-05-07T03:14:14.585Z,1001.98
2017-05-07T03:15:16.010Z,1001.96
2017-05-07T03:16:17.435Z,1001.98
2017-05-07T03:17:18.863Z,1001.99
2017-05-07T03:18:20.287Z,1001.95
2017-05-07T03:19:21.716Z,1001.95
2017-05-07T03:20:23.141Z,1001.92
2017-05-07T03:21:24.568Z,1001.94
2017-05-07T03:22:25.986Z,1001.91
2017-05-07T03:23:27.413Z,1001.94
2017-05-07T03:24:28.834Z,1001.95
2017-05-07T03:25:30.257Z,1001.92
2017-05-07T03:26:31.679Z,1001.95
2017-05-07T03:27:33.111Z,1001.93
2017-05-07T03:28:34.543Z,1001.95
2017-05-07T03:29:35.965Z,1001.98
2017-05-07T03:30:37.391Z,1001.98
2017-05-07T03:31:38.816Z,1002.00
2017-05-07T03:32:40.248Z,1001.97
2017-05-07T03:33:41.675Z,1001.97
2017-05-07T03:34:43.105Z,1002.03
2017-05-07T03:35:44.529Z,1002.01
2017-05-07T03:36:45.951Z,1002.02
2017-05-07T03:37:47.382Z,1002.00
2017-05-07T03:38:48.822Z,1002.01
2017-05-07T03:39:50.253Z,1002.00
2017-05-07T03:40:51.682Z,1002.04
2017-05-07T03:41:53.108Z,1002.00
2017-05-07T03:42:54.539Z,1002.02
2017-05-07T03:43:55.963Z,1002.03
2017-05-07T03:44:57.390Z,1002.00
2017-05-07T03:45:58.830Z,1002.01
2017-05-07T03:47:00.257Z,1002.00
2017-05-07T03:48:01.691Z,1002.03
2017-05-07T03:49:03.122Z,1002.03
2017-05-07T03:50:04.549Z,1001.98
2017-05-07T03:51:05.983Z,1001.92
2017-05-07T03:52:07.414Z,1001.98
2017-05-07T03:53:08.836Z,1001.95
2017-05-07T03:54:10.264Z,1001.94
2017-05-07T03:55:11.687Z,1001.97
2017-05-07T03:56:13.114Z,1001.98
2017-05-07T03:57:14.539Z,1001.99
2017-05-07T03:58:15.968Z,1002.00
2017-05-07T03:59:17.388Z,1002.00
2017-05-07T04:00:18.821Z,1002.01
2017-05-07T04:01:20.246Z,1002.00
2017-05-07T04:02:21.679Z,1002.04
2017-05-07T04:03:23.104Z,1002.08
2017-05-07T04:04:24.531Z,1002.03
2017-05-07T04:05:25.970Z,1002.03
2017-05-07T04:06:27.393Z,1002.04
2017-05-07T04:07:28.819Z,1002.06
2017-05-07T04:08:30.243Z,1002.05
2017-05-07T04:09:31.672Z,1002.03
2017-05-07T04:10:33.104Z,1002.07
2017-05-07T04:11:34.537Z,1002.06
2017-05-07T04:12:35.962Z,1002.11
2017-05-07T04:13:37.386Z,1002.09
2017-05-07T04:14:38.811Z,1002.14
2017-05-07T04:15:40.245Z,1002.10
2017-05-07T04:16:41.670Z,1002.13
2017-05-07T04:17:43.097Z,1002.18
2017-05-07T04:18:44.536Z,1002.13
2017-05-07T04:19:45.962Z,1002.14
2017-05-07T04:20:47.391Z,1002.17
2017-05-07T04:21:48.825Z,1002.17
2017-05-07T04:22:50.251Z,1002.16
2017-05-07T04:23:51.676Z,1002.18
2017-05-07T04:24:53.106Z,1002.22
2017-05-07T04:25:54.524Z,1002.20
2017-05-07T04:26:56.553Z,1002.25
2017-05-07T04:27:58.544Z,1002.24
2017-05-07T04:28:59.975Z,1002.26
2017-05-07T04:30:01.402Z,1002.26
2017-05-07T04:31:02.830Z,1002.24
2017-05-07T04:32:04.255Z,1002.21
2017-05-07T04:33:05.691Z,1002.22
2017-05-07T04:34:07.113Z,1002.23
2017-05-07T04:35:08.543Z,1002.20
2017-05-07T04:36:09.979Z,1002.23
2017-05-07T04:37:11.406Z,1002.22
2017-05-07T04:38:12.832Z,1002.18
2017-05-07T04:39:14.266Z,1002.23
2017-05-07T04:40:15.692Z,1002.22
2017-05-07T04:41:17.118Z,1002.24
2017-05-07T04:42:18.585Z,1002.31
2017-05-07T04:43:19.988Z,1002.28
2017-05-07T04:44:21.421Z,1002.32
2017-05-07T04:45:22.848Z,1002.35
2017-05-07T04:46:24.278Z,1002.35
2017-05-07T04:47:25.717Z,1002.38
2017-05-07T04:48:27.133Z,1002.41
2017-05-07T04:49:28.558Z,1002.44
2017-05-07T04:50:29.982Z,1002.44
2017-05-07T04:51:31.414Z,1002.43
2017-05-07T04:52:32.835Z,1002.46
2017-05-07T04:53:34.261Z,1002.45
2017-05-07T04:54:35.727Z,1002.44
2017-05-07T04:55:37.152Z,1002.43
2017-05-07T04:56:38.583Z,1002.49
2017-05-07T04:57:40.020Z,1002.48
2017-05-07T04:58:41.450Z,1002.45
2017-05-07T04:59:42.873Z,1002.41
2017-05-07T05:00:44.304Z,1002.47
2017-05-07T05:01:45.730Z,1002.50
2017-05-07T05:02:47.156Z,1002.49
2017-05-07T05:03:48.583Z,1002.56
2017-05-07T05:04:50.016Z,1002.55
2017-05-07T05:05:51.447Z,1002.55
2017-05-07T05:06:52.877Z,1002.58
2017-05-07T05:07:54.306Z,1002.57
2017-05-07T05:08:55.751Z,1002.61
2017-05-07T05:09:57.176Z,1002.64
2017-05-07T05:10:58.602Z,1002.68
2017-05-07T05:12:00.033Z,1002.66
2017-05-07T05:13:01.465Z,1002.70
2017-05-07T05:14:02.890Z,1002.69
2017-05-07T05:15:04.315Z,1002.72
2017-05-07T05:16:05.742Z,1002.70
2017-05-07T05:17:07.172Z,1002.75
2017-05-07T05:18:08.598Z,1002.79
2017-05-07T05:19:10.025Z,1002.79
2017-05-07T05:20:11.449Z,1002.80
2017-05-07T05:21:12.878Z,1002.84
2017-05-07T05:22:14.310Z,1002.84
2017-05-07T05:23:15.738Z,1002.89
2017-05-07T05:24:17.175Z,1002.88
2017-05-07T05:25:18.604Z,1002.92
2017-05-07T05:26:20.033Z,1002.94
2017-05-07T05:27:21.461Z,1002.91
2017-05-07T05:28:22.895Z,1002.87
2017-05-07T05:29:24.324Z,1002.87
2017-05-07T05:30:25.749Z,1002.90
2017-05-07T05:31:27.194Z,1002.91
2017-05-07T05:32:28.619Z,1002.85
2017-05-07T05:33:30.046Z,1002.88
2017-05-07T05:34:31.472Z,1002.90
2017-05-07T05:35:32.901Z,1002.89
2017-05-07T05:36:34.327Z,1002.88
2017-05-07T05:37:35.765Z,1002.91
2017-05-07T05:38:37.189Z,1002.92
2017-05-07T05:39:38.620Z,1002.92
2017-05-07T05:40:40.052Z,1002.95
2017-05-07T05:41:41.473Z,1002.93
2017-05-07T05:42:42.904Z,1002.97
2017-05-07T05:43:44.333Z,1003.00
2017-05-07T05:44:45.761Z,1003.01
2017-05-07T05:45:47.194Z,1003.05
2017-05-07T05:46:48.623Z,1003.04
2017-05-07T05:47:50.053Z,1003.05
2017-05-07T05:48:51.487Z,1003.06
2017-05-07T05:49:52.910Z,1003.04
2017-05-07T05:50:54.336Z,1003.07
2017-05-07T05:51:55.777Z,1003.07
2017-05-07T05:52:57.195Z,1003.06
2017-05-07T05:53:58.626Z,1003.08
2017-05-07T05:55:00.753Z,1003.04
2017-05-07T05:56:02.176Z,1003.07
2017-05-07T05:57:03.611Z,1003.08
2017-05-07T05:58:05.040Z,1003.08
2017-05-07T05:59:06.464Z,1003.07
2017-05-07T06:00:07.885Z,1003.09
2017-05-07T06:01:09.326Z,1003.10
2017-05-07T06:02:10.757Z,1003.13
2017-05-07T06:03:12.190Z,1003.11
2017-05-07T06:04:13.619Z,1003.17
2017-05-07T06:05:15.065Z,1003.12
2017-05-07T06:06:16.493Z,1003.15
2017-05-07T06:07:17.919Z,1003.18
2017-05-07T06:08:19.355Z,1003.21
2017-05-07T06:09:20.778Z,1003.21
2017-05-07T06:10:22.207Z,1003.21
2017-05-07T06:11:23.644Z,1003.24
2017-05-07T06:12:25.074Z,1003.31
2017-05-07T06:13:26.501Z,1003.28
2017-05-07T06:14:27.934Z,1003.27
2017-05-07T06:15:29.367Z,1003.35
2017-05-07T06:16:30.791Z,1003.32
2017-05-07T06:17:32.237Z,1003.36
2017-05-07T06:18:33.666Z,1003.37
2017-05-07T06:19:35.097Z,1003.40
2017-05-07T06:20:36.530Z,1003.36
2017-05-07T06:21:37.957Z,1003.37
2017-05-07T06:22:39.331Z,1003.41
2017-05-07T06:23:40.778Z,1003.40
2017-05-07T06:24:42.216Z,1003.41
2017-05-07T06:25:43.648Z,1003.42
2017-05-07T06:26:45.088Z,1003.47
2017-05-07T06:27:46.517Z,1003.50
2017-05-07T06:28:47.948Z,1003.50
2017-05-07T06:29:49.378Z,1003.52
2017-05-07T06:30:50.802Z,1003.49
2017-05-07T06:31:52.729Z,1003.52
2017-05-07T06:32:54.069Z,1003.50
2017-05-07T06:33:55.493Z,1003.53
2017-05-07T06:34:56.924Z,1003.49
2017-05-07T06:35:58.362Z,1003.58
2017-05-07T06:36:59.799Z,1003.53
2017-05-07T06:38:01.237Z,1003.54
2017-05-07T06:39:02.663Z,1003.57
2017-05-07T06:40:04.102Z,1003.57
2017-05-07T06:41:05.546Z,1003.60
2017-05-07T06:42:06.976Z,1003.54
2017-05-07T06:43:08.408Z,1003.61
2017-05-07T06:44:09.842Z,1003.64
2017-05-07T06:45:11.398Z,1003.59
2017-05-07T06:46:12.822Z,1003.55
2017-05-07T06:47:14.255Z,1003.63
2017-05-07T06:48:15.680Z,1003.61
2017-05-07T06:49:17.113Z,1003.63
2017-05-07T06:50:18.545Z,1003.68
2017-05-07T06:51:19.985Z,1003.65
2017-05-07T06:52:21.420Z,1003.69
2017-05-07T06:53:22.846Z,1003.74
2017-05-07T06:54:24.276Z,1003.74
2017-05-07T06:55:25.706Z,1003.70
2017-05-07T06:56:27.131Z,1003.73
2017-05-07T06:57:28.567Z,1003.77
2017-05-07T06:58:30.003Z,1003.67
2017-05-07T06:59:31.445Z,1003.70
2017-05-07T07:00:32.877Z,1003.75
2017-05-07T07:01:34.313Z,1003.74
2017-05-07T07:02:35.748Z,1003.70
2017-05-07T07:03:37.181Z,1003.72
2017-05-07T07:04:38.616Z,1003.79
2017-05-07T07:05:40.043Z,1003.81
2017-05-07T07:06:41.477Z,1003.80
2017-05-07T07:07:42.923Z,1003.86
2017-05-07T07:08:44.358Z,1003.91
2017-05-07T07:09:45.794Z,1003.88
2017-05-07T07:10:47.231Z,1003.90
2017-05-07T07:11:48.661Z,1003.91
2017-05-07T07:12:50.097Z,1003.94
2017-05-07T07:13:51.526Z,1003.91
2017-05-07T07:14:52.957Z,1003.93
2017-05-07T07:15:54.430Z,1003.95
2017-05-07T07:16:55.861Z,1003.97
2017-05-07T07:17:57.299Z,1003.96
2017-05-07T07:18:58.736Z,1003.97
2017-05-07T07:20:00.170Z,1003.98
2017-05-07T07:21:01.602Z,1003.93
2017-05-07T07:22:03.034Z,1003.97
2017-05-07T07:23:04.465Z,1003.98
2017-05-07T07:24:05.898Z,1004.03
2017-05-07T07:25:07.332Z,1004.04
2017-05-07T07:26:08.767Z,1004.04
2017-05-07T07:27:10.207Z,1004.05
2017-05-07T07:28:11.646Z,1004.04
2017-05-07T07:29:13.082Z,1004.04
2017-05-07T07:30:14.519Z,1004.02
2017-05-07T07:31:15.956Z,1004.12
2017-05-07T07:32:17.394Z,1004.09
2017-05-07T07:33:18.829Z,1004.10
2017-05-07T07:34:20.261Z,1004.08
2017-05-07T07:35:21.696Z,1004.12
2017-05-07T07:36:23.137Z,1004.12
2017-05-07T07:37:24.567Z,1004.10
2017-05-07T07:38:26.000Z,1004.15
2017-05-07T07:39:27.431Z,1004.14
2017-05-07T07:40:28.863Z,1004.15
2017-05-07T07:41:30.299Z,1004.18
2017-05-07T07:42:31.734Z,1004.21
2017-05-07T07:43:33.170Z,1004.21
2017-05-07T07:44:34.603Z,1004.21
2017-05-07T07:45:36.034Z,1004.21
2017-05-07T07:46:37.477Z,1004.22
2017-05-07T07:47:38.915Z,1004.26
2017-05-07T07:48:40.350Z,1004.28
2017-05-07T07:49:41.790Z,1004.30
2017-05-07T07:50:43.211Z,1004.32
2017-05-07T07:51:44.659Z,1004.36
2017-05-07T07:52:46.099Z,1004.42
2017-05-07T07:53:47.540Z,1004.42
2017-05-07T07:54:48.982Z,1004.45
2017-05-07T07:55:50.417Z,1004.42
2017-05-07T07:56:51.857Z,1004.43
2017-05-07T07:57:53.305Z,1004.45
2017-05-07T07:58:54.741Z,1004.42
2017-05-07T07:59:56.179Z,1004.46
2017-05-07T08:00:57.631Z,1004.49
2017-05-07T08:01:59.069Z,1004.52
2017-05-07T08:03:00.501Z,1004.55
2017-05-07T08:04:01.945Z,1004.58
2017-05-07T08:05:03.377Z,1004.57
2017-05-07T08:06:04.817Z,1004.53
2017-05-07T08:07:06.249Z,1004.56
2017-05-07T08:08:07.678Z,1004.57
2017-05-07T08:09:09.120Z,1004.56
2017-05-07T08:10:10.552Z,1004.52
2017-05-07T08:11:11.990Z,1004.58
2017-05-07T08:12:13.431Z,1004.58
2017-05-07T08:13:14.865Z,1004.56
2017-05-07T08:14:16.306Z,1004.61
2017-05-07T08:15:17.828Z,1004.56
2017-05-07T08:16:19.271Z,1004.58
2017-05-07T08:17:20.707Z,1004.61
2017-05-07T08:18:22.147Z,1004.61
2017-05-07T08:19:23.587Z,1004.64
2017-05-07T08:20:25.027Z,1004.62
2017-05-07T08:21:26.465Z,1004.60
2017-05-07T08:22:27.896Z,1004.62
2017-05-07T08:23:29.338Z,1004.66
2017-05-07T08:24:30.776Z,1004.66
2017-05-07T08:25:32.206Z,1004.69
2017-05-07T08:26:33.643Z,1004.67
2017-05-07T08:27:35.078Z,1004.73
2017-05-07T08:28:36.509Z,1004.69
2017-05-07T08:29:37.941Z,1004.74
2017-05-07T08:30:39.377Z,1004.73
2017-05-07T08:31:40.818Z,1004.76
2017-05-07T08:32:42.285Z,1004.75
2017-05-07T08:33:43.724Z,1004.71
2017-05-07T08:34:45.170Z,1004.78
2017-05-07T08:35:46.606Z,1004.80
2017-05-07T08:36:48.049Z,1004.84
2017-05-07T08:37:49.482Z,1004.87
2017-05-07T08:38:50.918Z,1004.85
2017-05-07T08:39:52.362Z,1004.82
2017-05-07T08:40:53.841Z,1004.79
2017-05-07T08:41:55.279Z,1004.82
2017-05-07T08:42:56.712Z,1004.85
2017-05-07T08:43:58.257Z,1004.90
2017-05-07T08:44:59.701Z,1004.87
2017-05-07T08:46:01.143Z,1004.84
2017-05-07T08:47:02.591Z,1004.91
2017-05-07T08:48:04.029Z,1004.88
2017-05-07T08:49:05.463Z,1004.87
2017-05-07T08:50:06.905Z,1004.90
2017-05-07T08:51:08.373Z,1004.96
2017-05-07T08:52:09.813Z,1004.96
2017-05-07T08:53:11.269Z,1005.00
2017-05-07T08:54:12.706Z,1004.99
2017-05-07T08:55:14.145Z,1004.99
2017-05-07T08:56:15.577Z,1004.98
2017-05-07T08:57:17.025Z,1004.97
2017-05-07T08:58:18.455Z,1005.00
2017-05-07T08:59:19.895Z,1005.00
2017-05-07T09:00:21.332Z,1005.04
2017-05-07T09:01:22.769Z,1005.03
2017-05-07T09:02:24.206Z,1005.01
2017-05-07T09:03:25.637Z,1004.99
2017-05-07T09:04:27.071Z,1004.99
2017-05-07T09:05:28.510Z,1004.97
2017-05-07T09:06:30.112Z,1004.99
2017-05-07T09:07:31.541Z,1005.03
2017-05-07T09:08:32.980Z,1005.05
2017-05-07T09:09:34.545Z,1005.06
2017-05-07T09:10:35.979Z,1005.08
2017-05-07T09:11:37.421Z,1005.09
2017-05-07T09:12:38.855Z,1005.11
2017-05-07T09:13:40.299Z,1005.14
2017-05-07T09:14:41.745Z,1005.13
2017-05-07T09:15:43.175Z,1005.12
2017-05-07T09:16:44.623Z,1005.15
2017-05-07T09:17:46.072Z,1005.15
2017-05-07T09:18:47.506Z,1005.10
2017-05-07T09:19:49.570Z,1005.12
2017-05-07T09:20:51.004Z,1005.16
2017-05-07T09:21:52.437Z,1005.18
2017-05-07T09:22:53.876Z,1005.23
2017-05-07T09:23:55.316Z,1005.23
2017-05-07T09:24:56.746Z,1005.25
2017-05-07T09:25:58.189Z,1005.21
2017-05-07T09:26:59.623Z,1005.22
2017-05-07T09:28:01.059Z,1005.25
2017-05-07T09:29:02.494Z,1005.28
2017-05-07T09:30:03.932Z,1005.27
2017-05-07T09:31:05.361Z,1005.27
2017-05-07T09:32:06.796Z,1005.32
2017-05-07T09:33:08.231Z,1005.37
2017-05-07T09:34:09.669Z,1005.31
2017-05-07T09:35:11.102Z,1005.32
2017-05-07T09:36:13.088Z,1005.33
2017-05-07T09:37:14.509Z,1005.33
2017-05-07T09:38:15.957Z,1005.32
2017-05-07T09:39:17.389Z,1005.34
2017-05-07T09:40:18.827Z,1005.34
2017-05-07T09:41:20.260Z,1005.31
2017-05-07T09:42:21.686Z,1005.30
2017-05-07T09:43:23.256Z,1005.28
2017-05-07T09:44:24.690Z,1005.27
2017-05-07T09:45:26.122Z,1005.28
2017-05-07T09:46:27.558Z,1005.37
2017-05-07T09:47:28.998Z,1005.31
2017-05-07T09:48:30.432Z,1005.28
2017-05-07T09:49:31.876Z,1005.30
2017-05-07T09:50:33.320Z,1005.30
2017-05-07T09:51:34.763Z,1005.35
2017-05-07T09:52:36.199Z,1005.31
2017-05-07T09:53:37.635Z,1005.27
2017-05-07T09:54:39.084Z,1005.27
2017-05-07T09:55:40.519Z,1005.29
2017-05-07T09:56:41.960Z,1005.33
2017-05-07T09:57:43.392Z,1005.32
2017-05-07T09:58:44.837Z,1005.28
2017-05-07T09:59:46.271Z,1005.34
2017-05-07T10:00:47.706Z,1005.35
2017-05-07T10:01:49.147Z,1005.32
2017-05-07T10:02:50.595Z,1005.36
2017-05-07T10:03:52.031Z,1005.37
2017-05-07T10:04:53.473Z,1005.38
2017-05-07T10:05:54.911Z,1005.42
2017-05-07T10:06:56.367Z,1005.43
2017-05-07T10:07:57.790Z,1005.42
2017-05-07T10:08:59.222Z,1005.49
2017-05-07T10:10:00.665Z,1005.40
2017-05-07T10:11:02.106Z,1005.38
2017-05-07T10:12:03.545Z,1005.46
2017-05-07T10:13:04.984Z,1005.41
2017-05-07T10:14:06.417Z,1005.47
2017-05-07T10:15:07.853Z,1005.52
2017-05-07T10:16:09.286Z,1005.47
2017-05-07T10:17:10.723Z,1005.47
2017-05-07T10:18:12.157Z,1005.50
2017-05-07T10:19:13.602Z,1005.54
2017-05-07T10:20:15.045Z,1005.55
2017-05-07T10:21:16.473Z,1005.54
2017-05-07T10:22:17.905Z,1005.56
2017-05-07T10:23:19.353Z,1005.56
2017-05-07T10:24:20.782Z,1005.52
2017-05-07T10:25:22.222Z,1005.56
2017-05-07T10:26:23.667Z,1005.55
2017-05-07T10:27:25.104Z,1005.55
2017-05-07T10:28:26.542Z,1005.58
2017-05-07T10:29:27.992Z,1005.59
2017-05-07T10:30:29.436Z,1005.58
2017-05-07T10:31:30.871Z,1005.62
2017-05-07T10:32:32.313Z,1005.62
2017-05-07T10:33:33.748Z,1005.63
2017-05-07T10:34:35.193Z,1005.61
2017-05-07T10:35:36.642Z,1005.64
2017-05-07T10:36:38.086Z,1005.65
2017-05-07T10:37:39.523Z,1005.67
2017-05-07T10:38:40.963Z,1005.61
2017-05-07T10:39:42.413Z,1005.67
2017-05-07T10:40:43.880Z,1005.63
2017-05-07T10:41:45.317Z,1005.67
2017-05-07T10:42:46.754Z,1005.65
2017-05-07T10:43:48.194Z,1005.61
2017-05-07T10:44:49.636Z,1005.69
2017-05-07T10:45:51.081Z,1005.69
2017-05-07T10:46:52.516Z,1005.66
2017-05-07T10:47:53.960Z,1005.67
2017-05-07T10:48:55.410Z,1005.66
2017-05-07T10:49:56.836Z,1005.72
2017-05-07T10:50:58.369Z,1005.68
2017-05-07T10:51:59.805Z,1005.63
2017-05-07T10:53:01.240Z,1005.65
2017-05-07T10:54:02.674Z,1005.67
2017-05-07T10:55:04.116Z,1005.65
2017-05-07T10:56:05.548Z,1005.65
2017-05-07T10:57:06.984Z,1005.66
2017-05-07T10:58:08.432Z,1005.65
2017-05-07T10:59:09.885Z,1005.69
2017-05-07T11:00:11.324Z,1005.64
2017-05-07T11:01:12.758Z,1005.67
2017-05-07T11:02:14.202Z,1005.62
2017-05-07T11:03:15.642Z,1005.64
2017-05-07T11:04:17.072Z,1005.69
2017-05-07T11:05:18.513Z,1005.63
2017-05-07T11:06:19.958Z,1005.61
2017-05-07T11:07:21.404Z,1005.65
2017-05-07T11:08:22.841Z,1005.61
2017-05-07T11:09:24.280Z,1005.61
2017-05-07T11:10:25.719Z,1005.65
2017-05-07T11:11:27.157Z,1005.61
2017-05-07T11:12:28.588Z,1005.59
2017-05-07T11:13:30.036Z,1005.62
2017-05-07T11:14:31.472Z,1005.66
2017-05-07T11:15:32.915Z,1005.62
2017-05-07T11:16:34.397Z,1005.59
2017-05-07T11:17:35.846Z,1005.63
2017-05-07T11:18:37.286Z,1005.65
2017-05-07T11:19:38.722Z,1005.64
2017-05-07T11:20:40.201Z,1005.62
2017-05-07T11:21:41.633Z,1005.60
2017-05-07T11:22:43.086Z,1005.63
2017-05-07T11:23:44.521Z,1005.65
2017-05-07T11:24:45.962Z,1005.67
2017-05-07T11:25:47.406Z,1005.67
2017-05-07T11:26:48.889Z,1005.64
2017-05-07T11:27:50.325Z,1005.65
2017-05-07T11:28:51.762Z,1005.69
2017-05-07T11:29:53.194Z,1005.70
2017-05-07T11:30:54.632Z,1005.67
2017-05-07T11:31:56.070Z,1005.66
2017-05-07T11:32:57.515Z,1005.64
2017-05-07T11:33:58.953Z,1005.63
2017-05-07T11:35:00.397Z,1005.54
2017-05-07T11:36:01.842Z,1005.57
2017-05-07T11:37:03.280Z,1005.58
2017-05-07T11:38:04.723Z,1005.51
2017-05-07T11:39:06.163Z,1005.55
2017-05-07T11:40:07.607Z,1005.55
2017-05-07T11:41:09.052Z,1005.52
2017-05-07T11:42:10.490Z,1005.56
2017-05-07T11:43:11.934Z,1005.53
2017-05-07T11:44:13.381Z,1005.53
2017-05-07T11:45:14.823Z,1005.56
2017-05-07T11:46:16.278Z,1005.55
2017-05-07T11:47:17.721Z,1005.52
2017-05-07T11:48:19.158Z,1005.58
2017-05-07T11:49:20.603Z,1005.59
2017-05-07T11:50:22.045Z,1005.61
2017-05-07T11:51:23.485Z,1005.60
2017-05-07T11:52:24.923Z,1005.61
2017-05-07T11:53:26.367Z,1005.58
2017-05-07T11:54:27.842Z,1005.61
2017-05-07T11:55:29.279Z,1005.57
2017-05-07T11:56:30.715Z,1005.64
2017-05-07T11:57:32.151Z,1005.61
2017-05-07T11:58:33.595Z,1005.62
2017-05-07T11:59:35.040Z,1005.65
2017-05-07T12:00:36.469Z,1005.66
2017-05-07T12:01:37.971Z,1005.57
2017-05-07T12:02:39.409Z,1005.53
2017-05-07T12:03:40.860Z,1005.60
2017-05-07T12:04:42.301Z,1005.59
2017-05-07T12:05:44.644Z,1005.61
2017-05-07T12:06:46.086Z,1005.60
2017-05-07T12:07:47.532Z,1005.59
2017-05-07T12:08:48.977Z,1005.64
2017-05-07T12:09:50.419Z,1005.64
2017-05-07T12:10:51.857Z,1005.65
2017-05-07T12:11:53.295Z,1005.67
2017-05-07T12:12:54.738Z,1005.58
2017-05-07T12:13:56.778Z,1005.65
2017-05-07T12:14:58.212Z,1005.69
2017-05-07T12:15:59.660Z,1005.67
2017-05-07T12:17:01.098Z,1005.68
2017-05-07T12:18:02.541Z,1005.70
2017-05-07T12:19:03.999Z,1005.71
2017-05-07T12:20:05.431Z,1005.62
2017-05-07T12:21:06.869Z,1005.61
2017-05-07T12:22:08.304Z,1005.65
2017-05-07T12:23:09.747Z,1005.66